Tiempo atmosférico en la estación meteorológica de Chinchilla, Albacete (880 m.)



Fecha
DESCASC
Temp. máxima en grados centígrados (hora)
DESCASC
Temp. mínima en grados centígrados (hora)
DESCASC
Temp. media en grados centígrados
DESCASC
Racha de viento máxima en m/sg (hora)
DESCASC
Velocidad máxima media en intervalos de 10 minutos(hora)
DESCASC
Precipitaciones diarias en mm
DESCASC
Precipitaciones de 00:00 a 06:00 en mm
DESCASC
Precipitaciones de 06:00 a 12:00 en mm
DESCASC
Precipitaciones de 12:00 a 18:00 en mm
DESCASC
Precipitaciones de 18:00 a 24:00 en mm
DESCASC
08-12-2019 8.9 (15:30) 1.4 (06:00) 5.1 11.67 (23:59) 6.94 (21:30) 0.5 0.1 0 0 0.4
07-12-2019 12.3 (15:50) 1.7 (08:50) 7 5.28 (23:00) 3.89 (23:10) 0.1 0 0.1 0 0
06-12-2019 9.5 (12:50) 3.4 (08:50) 6.5 7.78 (09:10) 5.83 (09:10) 0 0 0 0 0
05-12-2019 10.5 (15:50) 4.1 (00:00) 7.3 8.61 (10:40) 5.83 (12:40) 5.3 4.7 0.6 0 0
04-12-2019 5.9 (16:10) 2.3 (00:00) 4.1 10.28 (04:00) 6.39 (03:50) 3.5 0.3 1 0.3 1.9
03-12-2019 7.9 (12:20) 2.2 (00:00) 5.1 14.17 (11:40) 8.89 (11:40) 2.3 0.7 0 0 1.6
02-12-2019 8 (14:00) 3.7 (00:00) 5.9 13.06 (11:50) 5.28 (11:50) 18.8 17.9 0.8 0 0.1
01-12-2019 10.6 (14:40) 4.8 (00:00) 7.7 10.56 (05:10) 6.11 (04:50) 0 0 0 0 0
30-11-2019 16.4 (16:00) 7.1 (00:00) 11.7 9.17 (19:20) 6.67 (19:30) 0 0 0 0 0
29-11-2019 10.9 (14:40) 6.6 (00:00) 8.7 10.28 (12:10) 6.94 (12:20) 0 0 0 0 0
28-11-2019 8.7 (13:40) 4.8 (00:00) 6.8 12.78 (00:10) 9.17 (00:10) 0 0 0 0 0
27-11-2019 11.1 (13:00) 6.2 (00:00) 8.7 15.56 (14:40) 10.28 (14:30) 1 0.9 0.1 0 0
26-11-2019 13 (16:10) 7.5 (00:00) 10.3 12.22 (23:59) 7.5 (20:10) 0 0 0 0 0
25-11-2019 10.2 (15:00) 3.8 (00:00) 7 13.61 (12:10) 9.44 (12:10) 0.2 0 0 0.2 0
24-11-2019 7.3 (15:30) 0.4 (00:00) 3.9 13.89 (01:50) 7.78 (15:50) 0 0 0 0 0
23-11-2019 7.5 (15:40) 2.9 (00:00) 5.2 21.11 (10:50) 12.22 (10:30) 4 4 0 0 0
22-11-2019 9.4 (12:50) 4.3 (00:00) 6.8 14.17 (18:40) 7.5 (14:10) 9.4 1.1 0.3 4.1 3.9
21-11-2019 9.2 (15:00) 3.4 (00:00) 6.3 9.17 (03:20) 5.83 (03:20) 2.7 0 0 0.3 2.4
20-11-2019 10.1 (13:50) 0 (00:00) 5.1 6.67 (17:40) 3.61 (17:40) 2.6 0 0 0 2.6
19-11-2019 -- (--) -- (--) -- -- (--) -- (--) -- -- -- 0 0
18-11-2019 -- (--) -- (--) -- -- (--) -- (--) -- -- -- -- --
17-11-2019 -- (--) -- (--) -- -- (--) -- (--) -- -- -- -- --
16-11-2019 -- (--) -- (--) -- -- (--) -- (--) -- 0 -- -- --
15-11-2019 5.3 (13:30) 0.5 (00:00) 2.9 15 (00:10) 10 (01:20) 0.1 0.1 0 0 0
14-11-2019 -- (--) -- (--) -- -- (--) -- (--) -- 0 -- 1.4 0.1
13-11-2019 11.6 (12:50) 4.7 (00:00) 8.2 17.22 (09:40) 11.11 (08:50) 4.1 1 0.1 3 0
12-11-2019 9.5 (14:40) 0.9 (00:00) 5.2 16.39 (15:40) 8.89 (15:40) 0 0 0 0 0
11-11-2019 7.1 (16:20) -0.4 (03:10) 3.3 15.28 (13:30) 8.89 (14:40) 0 0 0 0 0

Gráficas

Temp. máximas Temp. mínimas Temp. medias Precipitaciones Rachas de viento máximas Velocidades máximas media en intervalos de 10 minutos

Datos horarios

Fecha y hora oficial Temperatura (ºC) Velocidad del viento (km/h) Dirección del viento Racha (km/h) Dirección de racha Precipitación (mm) Presión (hPa) Tendencia (hPa) Humedad (%)
2019-12-10 23:00:00 3.1 14 Norte 28 Norte 0 921.9 -0.9 66
2019-12-10 22:00:00 3.8 22 Norte 33 Norte 0 922.4 -0.3 64
2019-12-10 21:00:00 4.7 21 Norte 30 Norte 0 922.6 -0.4 59
2019-12-10 20:00:00 4.3 12 Norte 18 Norte 0 922.8 -0.7 68
2019-12-10 19:00:00 4.3 9 Norte 17 Norte 0 922.7 -1.2 76
2019-12-10 18:00:00 5.4 13 Norte 23 Norte 0 923 -0.8 70
2019-12-10 17:00:00 7.5 12 Norte 28 Noroeste 0 923.5 -0.6 59
2019-12-10 16:00:00 8.6 10 Noroeste 19 Oeste 0 923.9 -0.6 55
2019-12-10 15:00:00 8.4 12 Noroeste 24 Norte 0 923.8 -1.3 58
2019-12-10 14:00:00 7.2 12 Noroeste 19 Noroeste 0 924.1 -1 62
2019-12-10 13:00:00 5.5 11 Noroeste 19 Noroeste 0 924.5 0.5 76
2019-12-10 12:00:00 2.7 10 Noroeste 16 Noroeste 0 925.1 1.5 94
2019-12-10 11:00:00 1.3 3 Noroeste 35 Norte 0 925.1 1.5 94
2019-12-10 10:00:00 0 28 Norte 40 Norte 0 924 -0.1 94
2019-12-10 09:00:00 0.1 19 Norte 35 Norte 0 923.6 -0.6 94
2019-12-10 08:00:00 -0.5 17 Norte 30 Norte 0 923.6 -0.9 91
2019-12-10 07:00:00 0.4 11 Norte 29 Noroeste 0 924.1 -0.8 85
2019-12-10 06:00:00 1.2 17 Noroeste 26 Noroeste 0 924.2 -1.3 83
2019-12-10 05:00:00 1 7 Norte 14 Noroeste 0 924.5 -0.7 85
2019-12-10 04:00:00 1.5 10 Norte 22 Noroeste 0 924.9 -0.4 86
2019-12-10 03:00:00 1.1 4 Norte 27 Noroeste 0 925.5 0 87
2019-12-10 02:00:00 3 16 Noroeste 49 Norte 0 925.2 -0.8 77
2019-12-10 01:00:00 3.4 23 Noroeste 37 Noroeste 0 925.3 -0.9 78
2019-12-10 00:00:00 3.8 23 Noroeste 36 Norte 0 925.5 -0.6 78
2019-12-09 23:00:00 4.3 18 Norte 41 Norte 0 926 0.4 87
2019-12-09 22:00:00 4.8 19 Noroeste 38 Noroeste 0 926.2 0.9 87
2019-12-09 21:00:00 5.2 20 Norte 37 Noroeste 0 926.1 1 83
2019-12-09 20:00:00 6 22 Norte 37 Noroeste 0 925.6 0.8 73
2019-12-09 19:00:00 6 18 Noroeste 32 Noroeste 0 925.3 0.5 73
2019-12-09 18:00:00 6.3 17 Norte 32 Noroeste 0 925.1 0.4 71
2019-12-09 17:00:00 7.3 21 Noroeste 43 Noroeste 0 924.8 0 67
2019-12-09 16:00:00 7.9 25 Noroeste 42 Noroeste 0 924.8 -0.5 64
2019-12-09 15:00:00 8.5 24 Noroeste 41 Noroeste 0 924.7 -1.1 69
2019-12-09 14:00:00 8.1 26 Noroeste 39 Noroeste 0 924.8 -1.2 67
2019-12-09 13:00:00 7 22 Noroeste 40 Noroeste 0 925.3 -0.1 75
2019-12-09 12:00:00 5.8 17 Noroeste 36 Norte 0 925.8 1 85
2019-12-09 11:00:00 4.8 19 Noroeste 38 Norte 0 926 1.8 90
2019-12-09 10:00:00 4.4 24 Norte 35 Noroeste 0 925.4 1.6 93
2019-12-09 09:00:00 4.8 23 Noroeste 41 Norte 0 924.8 1.2 93
2019-12-09 08:00:00 4.8 24 Norte 42 Norte 0 924.2 0.5 93
2019-12-09 07:00:00 5 26 Norte 50 Noroeste 0 923.8 0.3 93
2019-12-09 06:00:00 5.3 27 Norte 48 Norte 0 923.6 0.5 93
2019-12-09 05:00:00 5.5 30 Norte 44 Norte 0 923.7 0.7 93
2019-12-09 04:00:00 5.7 26 Norte 41 Norte 0 923.5 -0.1 93
2019-12-09 03:00:00 5.8 20 Norte 35 Noroeste 0 923.1 -0.2 93
2019-12-09 02:00:00 5.8 17 Noroeste 33 Noroeste 0.1 923 0.1 93
2019-12-09 01:00:00 5.6 18 Norte 33 Norte 0.8 923.6 1 93
2019-12-09 00:00:00 5.6 24 Norte 42 Noroeste 0.3 923.3 1.2 93
2019-12-08 23:00:00 5.5 19 Norte 35 Norte 0.1 922.9 0.7 93
2019-12-08 22:00:00 5.3 21 Noroeste 39 Norte 0 922.6 0.6 92
2019-12-08 21:00:00 5.3 21 Norte 37 Norte 0 922.1 0.3 91
2019-12-08 20:00:00 5.3 23 Norte 36 Norte 0 922.2 0.5 90
2019-12-08 19:00:00 5.7 18 Norte 36 Noroeste 0 922 0.3 90
2019-12-08 18:00:00 5.9 23 Norte 38 Norte 0 921.8 0 89
2019-12-08 17:00:00 7.3 17 Noroeste 26 Noroeste 0 921.7 -0.3 83
2019-12-08 16:00:00 8.5 14 Norte 27 Norte 0 921.7 -0.8 74
2019-12-08 15:00:00 8.4 17 Norte 28 Norte 0 921.8 -1.2 71
2019-12-08 14:00:00 7.1 15 Norte 32 Norte 0 922 -1 75
2019-12-08 13:00:00 6.5 17 Noroeste 32 Noroeste 0 922.5 0.1 75
2019-12-08 12:00:00 5.1 17 Norte 31 Norte 0 923 1.2 87
2019-12-08 11:00:00 3.5 15 Norte 26 Norte 0 923 1.6 93
2019-12-08 10:00:00 2.7 5 Norte 24 Norte 0 922.4 1.3 93
2019-12-08 09:00:00 2 17 Norte 27 Norte 0 921.8 0.9 93
2019-12-08 08:00:00 1.9 10 Norte 18 Norte 0 921.4 0.2 93
2019-12-08 07:00:00 1.6 10 Norte 15 Norte 0 921.1 -0.5 93
2019-12-08 06:00:00 1.4 5 Norte 10 Norte 0 920.9 -1.1 93
2019-12-08 05:00:00 1.9 5 Noroeste 14 Norte 0.1 921.2 -0.8 93
2019-12-08 04:00:00 2.4 5 Norte 18 Noroeste 0 921.6 -0.7 93
2019-12-08 03:00:00 3.1 9 Norte 25 Norte 0 922 -0.4 93
2019-12-08 02:00:00 4.4 12 Norte 23 Norte 0 922 -0.3 93
2019-12-08 01:00:00 4.7 15 Norte 22 Norte 0 922.3 0.1 93
2019-12-08 00:00:00 4.2 2 Norte 19 Norte 0 922.4 0.5 90
2019-12-07 23:00:00 4.7 14 Norte 19 Norte 0 922.3 0.5 89
2019-12-07 22:00:00 4.8 5 Norte 10 Norte 0 922.2 0.7 84
2019-12-07 21:00:00 4.3 5 Norte 7 Norte 0 921.9 0.4 86
2019-12-07 20:00:00 5.1 3 Oeste 11 Nordeste 0 921.8 0.7 77
2019-12-07 19:00:00 5.6 9 Norte 19 Norte 0 921.5 0.1 83
2019-12-07 18:00:00 7.3 8 Norte 10 Norte 0 921.5 0.3 79
2019-12-07 17:00:00 10.7 0 Calma 10 Sudoeste 0 921.1 -0.4 64
2019-12-07 16:00:00 12.1 7 Sudoeste 11 Sudoeste 0 921.4 -0.5 63
2019-12-07 15:00:00 11.8 7 Sur 16 Sudoeste 0 921.2 -0.6 64
2019-12-07 14:00:00 9.9 10 Norte 16 Norte 0 921.5 0 59
2019-12-07 13:00:00 9.7 4 Sudoeste 8 Sudoeste 0 921.9 0.8 82
2019-12-07 12:00:00 5.5 2 Noroeste 5 Noroeste 0 921.8 1.4 91
2019-12-07 11:00:00 3.6 0 Calma 7 Sudoeste 0 921.5 1.3 91
2019-12-07 10:00:00 2.4 0 Calma 5 Sur 0 921.1 1 91
2019-12-07 09:00:00 3.1 0 Calma 8 Sudeste 0 920.4 0.2 91
2019-12-07 08:00:00 3.3 9 Norte 15 Norte 0 920.2 -0.2 91
2019-12-07 07:00:00 3.2 0 Calma 13 Nordeste 0.1 920.1 -0.7 91
2019-12-07 06:00:00 3.9 9 Nordeste 14 Nordeste 0 920.2 -0.5 91
2019-12-07 05:00:00 3.7 10 Este 12 Este 0 920.4 -0.1 91
2019-12-07 04:00:00 4.3 8 Este 15 Este 0 920.8 0.1 91
2019-12-07 03:00:00 4.3 9 Este 15 Este 0 920.7 -0.3 91
2019-12-07 02:00:00 4.2 9 Este 14 Este 0 920.5 -0.5 91
2019-12-07 01:00:00 3.9 9 Este 17 Sudeste 0 920.7 -0.1 91
2019-12-07 00:00:00 4.7 12 Sudeste 16 Sudeste 0 921 0.5 91
2019-12-06 23:00:00 4.8 10 Sudeste 13 Sudeste 0 921 0.4 91
2019-12-06 22:00:00 4.9 2 Este 18 Sudeste 0 920.8 0.2 90
2019-12-06 21:00:00 4.6 12 Sudeste 18 Sudeste 0 920.5 0.1 87
2019-12-06 20:00:00 5.4 12 Este 15 Sudeste 0 920.6 0.4 84
2019-12-06 19:00:00 6.3 6 Nordeste 17 Sudeste 0 920.6 0.5 82
2019-12-06 18:00:00 7.2 7 Este 21 Sudeste 0 920.4 0.4 80
2019-12-06 17:00:00 8.1 11 Este 21 Este 0 920.2 -0.3 78
2019-12-06 16:00:00 8.4 13 Sudeste 19 Sudeste 0 920.1 -1.2 75
2019-12-06 15:00:00 8.9 12 Sudeste 18 Sudeste 0 920 -1.6 73
2019-12-06 14:00:00 9.4 10 Sudeste 18 Este 0 920.5 -1 73
2019-12-06 13:00:00 9.2 9 Sudeste 21 Este 0 921.3 0.6 74
2019-12-06 12:00:00 8.8 12 Sudeste 22 Sudeste 0 921.6 1.6 81
2019-12-06 11:00:00 6.4 15 Sudeste 23 Sudeste 0 921.5 1.8 90
2019-12-06 10:00:00 5.3 16 Este 28 Este 0 920.7 1.1 91
2019-12-06 09:00:00 3.6 16 Este 26 Este 0 920 0.8 90
2019-12-06 08:00:00 4 14 Este 18 Sudeste 0 919.7 0.8 88
2019-12-06 07:00:00 5.2 5 Este 13 Este 0 919.6 0.5 91
2019-12-06 06:00:00 5.3 4 Este 10 Este 0 919.2 0.5 91
2019-12-06 05:00:00 5.2 5 Este 9 Este 0 918.9 0.5 91
2019-12-06 04:00:00 5.2 6 Este 9 Este 0 919.1 0.4 91
2019-12-06 03:00:00 4.9 4 Este 14 Este 0 918.7 0 91
2019-12-06 02:00:00 4.7 5 Este 24 Este 0 918.4 -0.2 91
2019-12-06 01:00:00 4.7 15 Este 27 Este 0 918.7 0.4 91
2019-12-06 00:00:00 5.4 16 Este 26 Este 0 918.7 0.6 91
2019-12-05 23:00:00 4.8 18 Este 24 Este 0 918.6 0.7 90
2019-12-05 22:00:00 5.1 12 Este 24 Este 0 918.3 0.9 89
2019-12-05 21:00:00 5.6 12 Este 22 Sudeste 0 918.1 1.3 88
2019-12-05 20:00:00 6 12 Sudeste 24 Sudeste 0 917.9 1.5 86
2019-12-05 19:00:00 6.6 9 Este 14 Este 0 917.4 1.3 83
2019-12-05 18:00:00 7.3 9 Este 23 Sudeste 0 916.8 1.3 78
2019-12-05 17:00:00 9.8 11 Sudeste 18 Sudeste 0 916.4 1 68
2019-12-05 16:00:00 9 13 Sudeste 27 Sudeste 0 916.1 0.7 68
2019-12-05 15:00:00 9.3 17 Sudeste 26 Sudeste 0 915.5 0.3 73
2019-12-05 14:00:00 8.6 15 Sudeste 26 Sudeste 0 915.4 0.7 84
2019-12-05 13:00:00 7 16 Sudeste 30 Este 0 915.4 1.4 88
2019-12-05 12:00:00 6.9 17 Sudeste 28 Este 0 915.2 2.5 93
2019-12-05 11:00:00 6.3 18 Sudeste 31 Sudeste 0 914.7 3 93
2019-12-05 10:00:00 5.6 12 Este 23 Sudeste 0 914 3.4 93
2019-12-05 09:00:00 5 15 Sudeste 27 Sudeste 0 912.7 2.9 93
2019-12-05 08:00:00 4.8 13 Este 20 Este 0.4 911.7 2.2 93
2019-12-05 07:00:00 4.6 9 Nordeste 19 Nordeste 0.2 910.6 1.2 93
2019-12-05 06:00:00 4.4 12 Norte 21 Norte 0.1 909.8 0.7 93
2019-12-05 05:00:00 4.4 14 Norte 26 Norte 0.4 909.5 0.7 93
2019-12-05 04:00:00 4.4 13 Norte 28 Noroeste 0.2 909.4 0.5 93
2019-12-05 03:00:00 4.3 9 Noroeste 19 Noroeste 0.6 909.1 0.6 93
2019-12-05 02:00:00 4.3 11 Norte 19 Norte 1.1 908.8 0.8 93
2019-12-05 01:00:00 4.3 3 Norte 10 Norte 2.3 908.9 1.1 93
2019-12-05 00:00:00 4.4 9 Norte 18 Nordeste 1 908.5 1.1 93
2019-12-04 23:00:00 4.6 10 Nordeste 21 Nordeste 0.3 908 1.3 93
2019-12-04 22:00:00 5 8 Norte 19 Noroeste 0.6 907.8 1.3 93
2019-12-04 21:00:00 5.3 11 Norte 20 Noroeste 0 907.4 1.4 93
2019-12-04 20:00:00 5.3 13 Norte 22 Noroeste 0 906.7 0.9 93
2019-12-04 19:00:00 5.4 8 Norte 20 Noroeste 0 906.5 1.1 92
2019-12-04 18:00:00 5.3 9 Noroeste 21 Norte 0 906 1.1 91
2019-12-04 17:00:00 5.3 14 Norte 22 Norte 0 905.8 0.9 91
2019-12-04 16:00:00 5.5 8 Noroeste 17 Noroeste 0 905.4 0.6 91
2019-12-04 15:00:00 5.3 10 Noroeste 16 Norte 0.1 904.9 -0.5 92
2019-12-04 14:00:00 4.9 9 Norte 17 Norte 0.1 904.9 -1 93
2019-12-04 13:00:00 4.6 10 Norte 31 Noroeste 0.1 904.8 -0.5 94
2019-12-04 12:00:00 4.4 14 Norte 31 Noroeste 0.5 905.4 0.5 94
2019-12-04 11:00:00 4.1 15 Norte 26 Norte 0 905.9 1.2 94
2019-12-04 10:00:00 4 12 Noroeste 27 Noroeste 0.4 905.3 0.1 94
2019-12-04 09:00:00 3.6 15 Norte 25 Norte 0.1 904.9 -0.7 94
2019-12-04 08:00:00 3.3 15 Norte 25 Norte 0 904.7 -1.4 95
2019-12-04 07:00:00 3.2 16 Norte 28 Noroeste 0 905.2 -1.1 95
2019-12-04 06:00:00 3.3 14 Norte 26 Noroeste 0.1 905.6 -1.3 95
2019-12-04 05:00:00 3.2 17 Norte 35 Noroeste 0.1 906.1 -1.6 95
2019-12-04 04:00:00 3 23 Norte 37 Noroeste 0 906.3 -2 95
2019-12-04 03:00:00 2.7 18 Norte 32 Norte 0.1 906.9 -2.3 95
2019-12-04 02:00:00 2.6 18 Norte 35 Norte 0 907.7 -1.8 95
2019-12-04 01:00:00 2.7 17 Norte 28 Norte 0 908.3 -1.6 95
2019-12-04 00:00:00 2.3 21 Norte 36 Norte 0.2 909.2 -1.2 94
2019-12-03 23:00:00 2.3 22 Nordeste 36 Nordeste 0.3 909.5 -1 92
2019-12-03 22:00:00 2.2 21 Nordeste 36 Nordeste 0.3 909.9 -0.7 90
2019-12-03 21:00:00 2.5 15 Nordeste 31 Nordeste 0.6 910.4 0 87
2019-12-03 20:00:00 2.9 11 Este 32 Nordeste 0.2 910.5 0.1 81
2019-12-03 19:00:00 3.2 14 Este 33 Este 0 910.6 0.3 82
2019-12-03 18:00:00 3.7 12 Este 33 Nordeste 0 910.4 -0.1 82
2019-12-03 17:00:00 4 15 Este 35 Este 0 910.4 -0.4 81
2019-12-03 16:00:00 5.1 14 Este 37 Este 0 910.3 -1.2 77
2019-12-03 15:00:00 5.3 13 Este 36 Este 0 910.5 -1.5 77
2019-12-03 14:00:00 6.5 12 Este 47 Este 0 910.8 -1.6 76
2019-12-03 13:00:00 6.4 29 Este 50 Este 0 911.5 -1.1 77
2019-12-03 12:00:00 7.1 27 Este 51 Este 0 912 -0.4 79
2019-12-03 11:00:00 5.9 23 Este 45 Sudeste 0 912.4 0.5 86
2019-12-03 10:00:00 5.1 23 Este 40 Este 0 912.6 1.1 88
2019-12-03 09:00:00 5.3 18 Este 37 Sudeste 0 912.4 0.7 86
2019-12-03 08:00:00 5.1 12 Este 32 Este 0 911.9 -0.1 87
2019-12-03 07:00:00 4.9 13 Este 32 Este 0 911.5 -1.2 88
2019-12-03 06:00:00 4.4 13 Este 42 Este 0 911.7 -1.4 90
2019-12-03 05:00:00 4.7 12 Este 33 Sudeste 0.3 912 -1.2 90
2019-12-03 04:00:00 4.9 12 Este 36 Este 0.4 912.7 -0.9 88
2019-12-03 03:00:00 4.9 20 Este 41 Este 0 913.1 -0.3 86
2019-12-03 02:00:00 5.3 21 Este 40 Este 0 913.2 -0.8 84
2019-12-03 01:00:00 5.4 14 Este 36 Este 0 913.6 -0.2 84
2019-12-03 00:00:00 5 17 Este 36 Este 0 913.4 -0.3 81
2019-12-02 23:00:00 5 16 Este 33 Este 0.1 914 0.8 86
2019-12-02 22:00:00 5.2 10 Nordeste 28 Nordeste 0 913.8 1.3 88
2019-12-02 21:00:00 5.3 11 Nordeste 28 Este 0 913.7 1.4 87
2019-12-02 20:00:00 5.7 12 Nordeste 30 Este 0 913.2 1.2 84
2019-12-02 19:00:00 5.8 13 Este 28 Este 0 912.5 0.8 84
2019-12-02 18:00:00 6 13 Este 35 Este 0 912.3 0.5 84
2019-12-02 17:00:00 6.3 14 Este 38 Este 0 912 0.1 80
2019-12-02 16:00:00 6.6 13 Este 41 Este 0 911.7 -0.1 78
2019-12-02 15:00:00 7.3 15 Este 45 Sudeste 0 911.8 -0.2 73
2019-12-02 14:00:00 7.7 19 Este 47 Este 0 911.9 -0.1 75
2019-12-02 13:00:00 6.9 16 Este 40 Este 0 911.8 0.7 78
2019-12-02 12:00:00 7 19 Este 47 Este 0 912 1.7 83
2019-12-02 11:00:00 5.8 15 Este 37 Nordeste 0 912 2.2 88
2019-12-02 10:00:00 5.2 19 Este 45 Este 0 911.1 1.6 91
2019-12-02 09:00:00 4.5 16 Nordeste 33 Este 0 910.3 0.8 92
2019-12-02 08:00:00 3.9 12 Nordeste 29 Este 0.4 909.8 0.5 92
2019-12-02 07:00:00 3.7 13 Nordeste 29 Nordeste 0.4 909.5 0.2 91
2019-12-02 06:00:00 4.1 11 Este 24 Este 1.4 909.5 0.2 92
2019-12-02 05:00:00 4.9 6 Nordeste 25 Nordeste 6.3 909.3 0 92
2019-12-02 04:00:00 5.3 12 Nordeste 19 Nordeste 10 909.3 -0.1 91
2019-12-02 03:00:00 5.8 8 Este 24 Este 0.2 909.3 -0.4 86
2019-12-02 02:00:00 5.7 10 Este 30 Sudeste 0 909.3 -0.4 82
2019-12-02 01:00:00 5.5 16 Este 31 Este 0 909.4 -0.3 78
2019-12-02 00:00:00 5.1 14 Sudeste 22 Sudeste 0 909.7 0.2 68
2019-12-01 23:00:00 5.5 10 Este 17 Este 0 909.7 -0.1 67
2019-12-01 22:00:00 5.8 6 Este 17 Este 0 909.7 0.2 64
2019-12-01 21:00:00 6.1 10 Este 18 Este 0 909.5 0 65
2019-12-01 20:00:00 5 10 Este 15 Sudeste 0 909.8 -0.2 68
2019-12-01 19:00:00 5.5 8 Nordeste 12 Nordeste 0 909.5 -0.9 64
2019-12-01 18:00:00 6.9 5 Nordeste 13 Oeste 0 909.5 -1.2 59
2019-12-01 17:00:00 9.5 5 Norte 18 Noroeste 0 910 -1 49
2019-12-01 16:00:00 10 12 Noroeste 20 Noroeste 0 910.4 -1.2 46
2019-12-01 15:00:00 9.9 9 Noroeste 24 Noroeste 0 910.7 -1.5 47
2019-12-01 14:00:00 9.4 12 Noroeste 26 Noroeste 0 911 -1.8 50
2019-12-01 13:00:00 8.7 14 Noroeste 30 Oeste 0 911.6 -0.6 52
2019-12-01 12:00:00 8.3 14 Noroeste 27 Oeste 0 912.2 0.5 59
2019-12-01 11:00:00 7 14 Noroeste 25 Oeste 0 912.8 1.1 68
2019-12-01 10:00:00 6 9 Noroeste 23 Noroeste 0 912.2 0.4 85
2019-12-01 09:00:00 5.3 9 Noroeste 28 Noroeste 0 911.7 0 89
2019-12-01 08:00:00 5.5 12 Noroeste 24 Noroeste 0 911.7 0 89
2019-12-01 07:00:00 6.1 9 Noroeste 30 Noroeste 0 911.8 -0.7 87
2019-12-01 06:00:00 6.2 18 Noroeste 38 Noroeste 0 911.7 -1.1 88
2019-12-01 05:00:00 7.9 19 Noroeste 36 Oeste 0 911.7 -1.2 86
2019-12-01 04:00:00 8.4 14 Oeste 33 Oeste 0 912.5 -1.1 83
2019-12-01 03:00:00 8.7 17 Oeste 35 Sudoeste 0 912.8 -1.5 80
2019-12-01 02:00:00 8 14 Noroeste 31 Oeste 0 912.9 -1.8 77
2019-12-01 01:00:00 8.1 16 Oeste 31 Oeste 0 913.6 -1.9 74
2019-12-01 00:00:00 7.6 13 Noroeste 30 Oeste 0 914.3 -1.5 78
2019-11-30 23:00:00 8.1 15 Noroeste 25 Noroeste 0 914.7 -1.3 87
2019-11-30 22:00:00 7.5 2 Noroeste 17 Noroeste 0 915.5 -0.4 89
2019-11-30 21:00:00 8.3 11 Norte 28 Norte 0 915.8 -0.8 88
2019-11-30 20:00:00 8.9 22 Norte 33 Noroeste 0 916 -0.7 86
2019-11-30 19:00:00 9.2 22 Norte 32 Noroeste 0 915.9 -1.4 84
2019-11-30 18:00:00 12 9 Norte 15 Norte 0 916.6 -1.3 59
2019-11-30 17:00:00 15.8 0 Calma 13 Oeste 0 916.7 -2 49
2019-11-30 16:00:00 16.3 7 Sudoeste 14 Oeste 0 917.3 -2.4 49
2019-11-30 15:00:00 14.3 9 Noroeste 20 Noroeste 0 917.9 -2.5 53
2019-11-30 14:00:00 13.1 11 Noroeste 20 Noroeste 0 918.7 -2.1 56
2019-11-30 13:00:00 12.3 11 Noroeste 18 Noroeste 0 919.7 -0.9 62
2019-11-30 12:00:00 11.4 9 Oeste 19 Oeste 0 920.4 0.2 68
2019-11-30 11:00:00 10.3 12 Oeste 20 Oeste 0 920.8 0.6 71
2019-11-30 10:00:00 8.8 10 Oeste 19 Noroeste 0 920.6 0.1 81
2019-11-30 09:00:00 7.3 9 Oeste 14 Noroeste 0 920.2 0.2 90
2019-11-30 08:00:00 7.5 6 Oeste 17 Noroeste 0 920.2 0 90
2019-11-30 07:00:00 7.6 12 Noroeste 18 Oeste 0 920.5 -0.1 90
2019-11-30 06:00:00 7.8 8 Noroeste 13 Noroeste 0 920 -0.8 91
2019-11-30 05:00:00 7.6 6 Noroeste 14 Noroeste 0 920.2 -0.7 91
2019-11-30 04:00:00 7.5 10 Noroeste 18 Noroeste 0 920.6 -0.2 91
2019-11-30 03:00:00 7.8 11 Noroeste 19 Noroeste 0 920.8 -0.3 90
2019-11-30 02:00:00 7.9 11 Noroeste 26 Noroeste 0 920.9 -0.2 91
2019-11-30 01:00:00 8.1 9 Noroeste 16 Noroeste 0 920.8 -0.4 89
2019-11-30 00:00:00 8.2 8 Noroeste 18 Oeste 0 921.1 -0.2 89
2019-11-29 23:00:00 8.7 9 Noroeste 19 Norte 0 921.1 0 89
2019-11-29 22:00:00 9 12 Norte 19 Norte 0 921.2 0.4 89
2019-11-29 21:00:00 9.2 12 Norte 18 Norte 0 921.3 0.7 89
2019-11-29 20:00:00 9.6 11 Norte 21 Noroeste 0 921.1 0.8 87
2019-11-29 19:00:00 9.7 14 Norte 23 Norte 0 920.8 0.7 86
2019-11-29 18:00:00 10.1 12 Noroeste 24 Norte 0 920.6 0.8 83
2019-11-29 17:00:00 10.2 18 Norte 26 Noroeste 0 920.3 -0.1 81
2019-11-29 16:00:00 10.8 13 Noroeste 24 Norte 0 920.1 -0.4 77
2019-11-29 15:00:00 10.8 13 Noroeste 21 Noroeste 0 919.8 -1 78
2019-11-29 14:00:00 10.5 13 Noroeste 28 Oeste 0 920.4 -0.4 77
2019-11-29 13:00:00 10.3 17 Noroeste 37 Noroeste 0 920.5 0.4 77
2019-11-29 12:00:00 9.8 16 Noroeste 31 Noroeste 0 920.8 1.2 78
2019-11-29 11:00:00 8.6 18 Noroeste 31 Noroeste 0 920.8 1.7 77
2019-11-29 10:00:00 8.2 22 Noroeste 33 Noroeste 0 920.1 1.2 77
2019-11-29 09:00:00 7.8 21 Noroeste 29 Noroeste 0 919.6 1.1 77
2019-11-29 08:00:00 7.4 12 Noroeste 24 Noroeste 0 919.1 0.8 76
2019-11-29 07:00:00 7.6 15 Noroeste 25 Noroeste 0 918.9 0.7 75
2019-11-29 06:00:00 7.5 15 Noroeste 25 Noroeste 0 918.5 0.7 74
2019-11-29 05:00:00 7.5 13 Noroeste 25 Noroeste 0 918.3 0.7 74
2019-11-29 04:00:00 7.3 11 Norte 18 Noroeste 0 918.2 0.6 74
2019-11-29 03:00:00 7 11 Noroeste 22 Noroeste 0 917.8 -0.2 74
2019-11-29 02:00:00 6.8 14 Noroeste 23 Noroeste 0 917.6 -0.4 74
2019-11-29 01:00:00 6.9 16 Noroeste 25 Noroeste 0 917.6 -0.4 74
2019-11-29 00:00:00 6.9 15 Noroeste 27 Oeste 0 918 0.3 76
2019-11-28 23:00:00 7.1 14 Oeste 30 Noroeste 0 918 0.8 77
2019-11-28 22:00:00 7.1 16 Oeste 28 Oeste 0 918 1 76
2019-11-28 21:00:00 7 15 Oeste 27 Noroeste 0 917.7 0.9 78
2019-11-28 20:00:00 7.2 16 Oeste 30 Noroeste 0 917.2 0.6 79
2019-11-28 19:00:00 7 21 Noroeste 31 Noroeste 0 917 0.5 81
2019-11-28 18:00:00 7 18 Noroeste 34 Noroeste 0 916.8 0 80
2019-11-28 17:00:00 7.4 16 Norte 33 Noroeste 0 916.6 -0.6 80
2019-11-28 16:00:00 8 18 Norte 28 Norte 0 916.5 -0.8 75
2019-11-28 15:00:00 7.9 17 Norte 28 Noroeste 0 916.8 -1.2 75
2019-11-28 14:00:00 7.9 17 Norte 32 Noroeste 0 917.2 -0.6 74
2019-11-28 13:00:00 8.1 22 Noroeste 39 Noroeste 0 917.3 -0.2 72
2019-11-28 12:00:00 7.8 24 Noroeste 40 Noroeste 0 918 1 74
2019-11-28 11:00:00 7.5 25 Noroeste 42 Noroeste 0 917.8 1.8 77
2019-11-28 10:00:00 6.5 15 Noroeste 31 Noroeste 0 917.5 2.1 85
2019-11-28 09:00:00 5.8 22 Noroeste 36 Noroeste 0 917 2.3 86
2019-11-28 08:00:00 5.2 22 Noroeste 32 Noroeste 0 916 1.6 87
2019-11-28 07:00:00 4.9 13 Noroeste 32 Noroeste 0 915.4 0.9 85
2019-11-28 06:00:00 4.9 17 Noroeste 35 Noroeste 0 914.7 0.1 84
2019-11-28 05:00:00 5 15 Noroeste 32 Noroeste 0 914.4 0 83
2019-11-28 04:00:00 5.8 24 Noroeste 37 Noroeste 0 914.5 -0.3 79
2019-11-28 03:00:00 6.3 22 Noroeste 33 Noroeste 0 914.6 0.2 78
2019-11-28 02:00:00 6.1 22 Noroeste 33 Noroeste 0 914.4 0.9 80
2019-11-28 01:00:00 6.2 24 Noroeste 46 Oeste 0 914.8 0.9 80
2019-11-28 00:00:00 6.6 34 Noroeste 51 Noroeste 0 914.4 0.7 78
2019-11-27 23:00:00 6.8 34 Noroeste 47 Noroeste 0 913.5 0.3 79
2019-11-27 22:00:00 7 27 Noroeste 40 Oeste 0 913.9 1 80
2019-11-27 21:00:00 7.3 18 Noroeste 29 Noroeste 0 913.7 0.9 80
2019-11-27 20:00:00 7.4 17 Noroeste 33 Noroeste 0 913.2 0.3 74
2019-11-27 19:00:00 7.7 19 Noroeste 32 Noroeste 0 912.9 0 68
2019-11-27 18:00:00 8.2 19 Noroeste 39 Noroeste 0 912.8 0.1 62
2019-11-27 17:00:00 9.6 28 Noroeste 39 Oeste 0 912.9 -0.4 55
2019-11-27 16:00:00 9.6 30 Noroeste 49 Oeste 0 912.9 -0.8 53
2019-11-27 15:00:00 10.6 33 Noroeste 56 Noroeste 0 912.7 -1.3 49
2019-11-27 14:00:00 10.6 32 Noroeste 48 Noroeste 0 913.3 -0.6 52
2019-11-27 06:00:00 9 14 Noroeste 40 Noroeste 0 910.8 -0.2 92
2019-11-27 05:00:00 9.1 10 Noroeste 24 Oeste 0 910.8 -0.9 92
2019-11-27 04:00:00 9.4 15 Noroeste 30 Noroeste 0.3 910.8 -0.9 92
2019-11-27 03:00:00 9.4 17 Oeste 28 Oeste 0.6 911 -0.7 90
2019-11-27 02:00:00 10 18 Oeste 36 Oeste 0 911.7 -0.1 81
2019-11-27 01:00:00 10.3 25 Noroeste 45 Oeste 0 911.7 -0.2 78
2019-11-27 00:00:00 10.2 25 Noroeste 44 Oeste 0 911.7 -0.1 78
2019-11-26 23:00:00 10.3 19 Oeste 37 Oeste 0 911.8 -0.6 70
2019-11-26 22:00:00 10.3 17 Noroeste 35 Noroeste 0 911.9 -0.7 74
2019-11-26 21:00:00 9.6 10 Noroeste 36 Noroeste 0 911.8 -1.1 81
2019-11-26 20:00:00 10.1 24 Noroeste 38 Noroeste 0 912.4 -0.6 81
2019-11-26 19:00:00 9.9 9 Noroeste 23 Noroeste 0 912.6 -0.7 81
2019-11-26 18:00:00 10.6 18 Noroeste 35 Oeste 0 912.9 -0.8 77
2019-11-26 17:00:00 12.4 14 Noroeste 33 Noroeste 0 913 -1.2 69
2019-11-26 16:00:00 12.8 20 Noroeste 39 Oeste 0 913.3 -1.3 71
2019-11-26 15:00:00 12.1 22 Oeste 34 Noroeste 0 913.7 -1.4 74
2019-11-26 14:00:00 11.1 15 Noroeste 28 Oeste 0 914.2 -1.5 76
2019-11-26 13:00:00 10.7 18 Noroeste 37 Oeste 0 914.6 -0.9 74
2019-11-26 12:00:00 9.9 19 Noroeste 33 Noroeste 0 915.1 0.1 75
2019-11-26 11:00:00 9.3 20 Noroeste 35 Noroeste 0 915.7 0.8 74
2019-11-26 10:00:00 8.2 14 Noroeste 39 Noroeste 0 915.5 0.8 74
2019-11-26 09:00:00 8.2 18 Noroeste 30 Noroeste 0 915 0 74
2019-11-26 08:00:00 7.6 17 Noroeste 33 Noroeste 0 914.9 -0.2 78
2019-11-26 07:00:00 7.8 19 Noroeste 32 Noroeste 0 914.7 -0.4 78
2019-11-26 06:00:00 7.8 18 Noroeste 29 Noroeste 0 915 0.2 81
2019-11-26 05:00:00 8 19 Noroeste 34 Noroeste 0 915.1 0.3 84
2019-11-26 04:00:00 8.2 20 Noroeste 39 Noroeste 0 915.1 -0.5 84
2019-11-26 03:00:00 7.9 23 Noroeste 38 Noroeste 0 914.8 -1.8 86
2019-11-26 02:00:00 8.1 25 Noroeste 39 Noroeste 0 914.8 -1.8 88
2019-11-26 01:00:00 7.9 21 Noroeste 33 Noroeste 0 915.6 -0.7 88
2019-11-26 00:00:00 8.4 18 Noroeste 28 Oeste 0 916.6 0.4 88
2019-11-25 23:00:00 8.4 13 Noroeste 24 Noroeste 0 916.6 0.7 91
2019-11-25 22:00:00 8.5 19 Noroeste 28 Noroeste 0 916.3 1 91
2019-11-25 21:00:00 8.7 11 Noroeste 23 Oeste 0 916.2 1 92
2019-11-25 20:00:00 8.9 10 Noroeste 21 Oeste 0 915.9 1.1 92
2019-11-25 19:00:00 9.2 15 Noroeste 28 Noroeste 0 915.3 0.4 91
2019-11-25 18:00:00 9.7 18 Noroeste 32 Noroeste 0 915.2 0.6 86
2019-11-25 17:00:00 9.7 14 Noroeste 28 Noroeste 0.2 914.8 0.1 91
2019-11-25 16:00:00 8.9 23 Noroeste 37 Noroeste 0 914.9 -0.2 87
2019-11-25 15:00:00 10 23 Noroeste 38 Noroeste 0 914.6 -0.1 80
2019-11-25 14:00:00 9.5 26 Noroeste 43 Oeste 0 914.7 -0.2 81
2019-11-25 13:00:00 9.3 26 Noroeste 49 Noroeste 0 915.1 0.8 81
2019-11-25 12:00:00 8.5 31 Noroeste 45 Noroeste 0 914.7 0.6 85
2019-11-25 11:00:00 7.8 30 Noroeste 43 Noroeste 0 914.9 1.1 85
2019-11-25 10:00:00 6.8 21 Noroeste 40 Noroeste 0 914.3 0.8 89
2019-11-25 09:00:00 6.2 18 Noroeste 37 Noroeste 0 914.1 0.4 90
2019-11-25 08:00:00 6.2 22 Noroeste 35 Noroeste 0 913.8 0.3 89
2019-11-25 07:00:00 5.6 17 Noroeste 31 Noroeste 0 913.5 -0.4 90
2019-11-25 06:00:00 5.5 19 Noroeste 32 Noroeste 0 913.7 -0.3 89
2019-11-25 05:00:00 5.9 16 Noroeste 35 Noroeste 0 913.5 -0.8 85
2019-11-25 04:00:00 5.7 21 Noroeste 38 Noroeste 0 913.9 -0.3 87
2019-11-25 03:00:00 5.2 19 Noroeste 37 Noroeste 0 914 -0.4 87
2019-11-25 02:00:00 4.7 20 Noroeste 33 Noroeste 0 914.3 -0.4 87
2019-11-25 01:00:00 4.2 21 Noroeste 34 Oeste 0 914.2 -0.5 86
2019-11-25 00:00:00 4.1 23 Noroeste 35 Noroeste 0 914.4 0.4 83
2019-11-24 23:00:00 3.9 19 Noroeste 33 Noroeste 0 914.7 0.8 82
2019-11-24 22:00:00 3.8 14 Noroeste 25 Noroeste 0 914.7 1.1 83
2019-11-24 21:00:00 3.4 10 Noroeste 22 Noroeste 0 914 0.7 82
2019-11-24 20:00:00 3.4 14 Noroeste 24 Noroeste 0 913.9 0.7 82
2019-11-24 19:00:00 3.7 8 Noroeste 20 Noroeste 0 913.6 0.5 76
2019-11-24 18:00:00 5 12 Noroeste 28 Noroeste 0 913.3 0.2 69
2019-11-24 17:00:00 6.1 12 Noroeste 44 Noroeste 0 913.2 0.1 61
2019-11-24 16:00:00 6.6 24 Noroeste 43 Noroeste 0 913.1 -0.3 55
2019-11-24 15:00:00 6.4 25 Noroeste 45 Noroeste 0 913.1 -0.4 61
2019-11-24 14:00:00 6.5 22 Noroeste 39 Noroeste 0 913.1 -0.8 64
2019-11-24 13:00:00 6.1 20 Norte 38 Noroeste 0 913.4 0.4 67
2019-11-24 12:00:00 5 21 Norte 46 Norte 0 913.5 1 68
2019-11-24 11:00:00 4.6 16 Noroeste 38 Noroeste 0 913.9 2.3 73
2019-11-24 10:00:00 2.4 16 Noroeste 25 Oeste 0 913 2.6 82
2019-11-24 09:00:00 1 11 Noroeste 17 Oeste 0 912.5 2.5 87
2019-11-24 08:00:00 0.4 6 Norte 19 Oeste 0 911.6 2.1 85
2019-11-24 07:00:00 1 11 Noroeste 34 Noroeste 0 910.4 1 83
2019-11-24 06:00:00 1.2 19 Noroeste 31 Noroeste 0 910 0.6 83
2019-11-24 05:00:00 1.5 19 Noroeste 32 Noroeste 0 909.5 0.8 83
2019-11-24 04:00:00 1.5 18 Noroeste 30 Noroeste 0 909.4 0.2 83
2019-11-24 03:00:00 1.7 15 Noroeste 42 Oeste 0 909.4 0.8 81
2019-11-24 02:00:00 2.3 27 Noroeste 50 Noroeste 0 908.7 -0.1 77
2019-11-24 01:00:00 2.5 23 Noroeste 41 Noroeste 0 909.2 0.8 76
2019-11-24 00:00:00 3.1 27 Noroeste 40 Noroeste 0 908.6 0.8 76
2019-11-23 23:00:00 3.1 21 Noroeste 29 Oeste 0 908.8 1.7 78
2019-11-23 22:00:00 3.1 17 Noroeste 33 Noroeste 0 908.4 1.9 77
2019-11-23 21:00:00 3.6 20 Noroeste 33 Oeste 0 907.8 2.5 75
2019-11-23 20:00:00 4.3 23 Noroeste 38 Oeste 0 907.1 3 70
2019-11-23 19:00:00 5 25 Noroeste 49 Noroeste 0 906.5 3.1 66
2019-11-23 18:00:00 5.9 30 Noroeste 57 Noroeste 0 905.3 3 60
2019-11-23 17:00:00 6.3 34 Noroeste 55 Noroeste 0 904.1 2.8 57
2019-11-23 16:00:00 6.5 33 Noroeste 64 Noroeste 0 903.4 1.8 53
2019-11-23 15:00:00 6.8 35 Noroeste 66 Noroeste 0 902.3 1.3 56
2019-11-23 14:00:00 6.7 37 Noroeste 68 Oeste 0 901.3 0.4 56
2019-11-23 13:00:00 5.7 35 Noroeste 72 Noroeste 0 901.6 1.8 59
2019-11-23 12:00:00 5.8 43 Noroeste 67 Noroeste 0 901 2.5 62
2019-11-23 11:00:00 5.3 38 Noroeste 76 Noroeste 0 900.9 3.6 68
2019-11-23 10:00:00 4.5 44 Noroeste 65 Noroeste 0 899.8 3.5 73
2019-11-23 09:00:00 4.2 31 Noroeste 51 Oeste 0 898.5 2.5 77
2019-11-23 08:00:00 3.9 30 Noroeste 50 Noroeste 0 897.3 1.6 80
2019-11-23 07:00:00 4.3 28 Noroeste 49 Oeste 0 896.3 0.7 82
2019-11-23 06:00:00 4.2 30 Noroeste 56 Noroeste 0 896 0.3 87
2019-11-23 05:00:00 3.8 27 Oeste 64 Oeste 2.6 895.7 -0.1 90
2019-11-23 04:00:00 4.9 30 Noroeste 48 Oeste 1.4 895.6 -0.8 88
2019-11-23 03:00:00 5.7 21 Oeste 48 Noroeste 0 895.7 -0.9 85
2019-11-23 02:00:00 5.8 36 Noroeste 60 Noroeste 0 895.8 -1.2 87
2019-11-23 01:00:00 7.3 30 Oeste 51 Noroeste 0 896.4 -1.4 74
2019-11-23 00:00:00 6.8 16 Oeste 48 Oeste 0 896.6 -0.2 77
2019-11-22 23:00:00 6.7 24 Oeste 45 Oeste 0 897 -0.1 75
2019-11-22 22:00:00 7.7 25 Oeste 41 Oeste 1.1 897.8 0.6 90
2019-11-22 21:00:00 7.6 8 Oeste 27 Sudoeste 0.1 896.8 -0.7 93
2019-11-22 20:00:00 7.9 17 Sur 27 Sudoeste 2 897.1 -0.9 93
2019-11-22 19:00:00 7.9 14 Sur 51 Sur 0.7 897.2 -1.1 93
2019-11-22 18:00:00 7.7 19 Sur 39 Sur 1.9 897.5 -2.1 93
2019-11-22 17:00:00 7.7 23 Sur 37 Sur 0.4 898 -2.6 92
2019-11-22 16:00:00 7.7 22 Sur 33 Sur 1 898.3 -3.6 91
2019-11-22 15:00:00 7.9 22 Sur 40 Sur 0.8 899.6 -3.9 88
2019-11-22 14:00:00 8.6 19 Sur 36 Sur 0 900.6 -3.5 84
2019-11-22 13:00:00 9.3 21 Sur 31 Sur 0 901.9 -2.4 81
2019-11-22 12:00:00 8.9 18 Sur 27 Sur 0.1 903.5 -1.6 82
2019-11-22 11:00:00 7.7 13 Sur 23 Sur 0 904.1 -0.8 89
2019-11-22 10:00:00 6.9 7 Sur 13 Sudeste 0 904.3 -0.6 93
2019-11-22 09:00:00 5.5 0 Calma 11 Sudeste 0 905.1 -0.4 93
2019-11-22 08:00:00 5.2 4 Sudeste 10 Sudeste 0 904.9 -0.7 93
2019-11-22 07:00:00 5 5 Sudeste 9 Sudeste 0.2 904.9 -0.9 93
2019-11-22 06:00:00 4.9 0 Calma 6 Sudeste 0.2 905.5 -1 93
2019-11-22 05:00:00 4.5 0 Calma 5 Sudeste 0 905.6 -1.1 93
2019-11-22 04:00:00 4.5 3 Norte 5 Nordeste 0 905.8 -1.7 92
2019-11-22 03:00:00 5 0 Calma 6 Sudoeste 0.1 906.5 -1.1 92
2019-11-22 02:00:00 5.6 5 Sudoeste 11 Oeste 0.2 906.7 -1 92
2019-11-22 01:00:00 5.7 0 Calma -- -- 0.6 907.5 -0.5 90
2019-11-22 00:00:00 5.8 0 Calma -- -- 0.3 907.6 -0.4 90
2019-11-21 23:00:00 5.6 0 Calma 6 Oeste 0.1 907.7 -0.4 90
2019-11-21 22:00:00 5.8 0 Calma 7 Sur 0.2 908 0.2 90
2019-11-21 21:00:00 6.2 3 Sur 8 Sur 0.5 908 0.3 89
2019-11-21 20:00:00 6.2 0 Calma -- -- 0.6 908.1 0.3 88
2019-11-21 19:00:00 6.6 2 Sudoeste 14 Oeste 0.7 907.8 0.2 86
2019-11-21 18:00:00 7.1 10 Oeste 17 Oeste 0.3 907.7 0.1 80
2019-11-21 17:00:00 7.5 12 Oeste 24 Noroeste 0 907.8 -0.2 74
2019-11-21 16:00:00 8.1 15 Noroeste 29 Noroeste 0 907.6 -1 67
2019-11-21 15:00:00 9.2 15 Oeste 32 Oeste 0 907.6 -1.5 66
2019-11-21 14:00:00 9 16 Oeste 28 Noroeste 0 908 -1.4 69
2019-11-21 13:00:00 7.3 19 Noroeste 31 Oeste 0 908.6 -0.2 73
2019-11-21 12:00:00 7.3 15 Oeste 23 Oeste 0 909.1 0.6 79
2019-11-21 11:00:00 6.3 10 Oeste 25 Oeste 0 909.4 1.3 82
2019-11-21 10:00:00 5.4 7 Sudoeste 13 Oeste 0 908.8 1 90
2019-11-21 09:00:00 4.2 0 Calma 13 Noroeste 0 908.5 1 90
2019-11-21 08:00:00 -- -- -- -- -- -- -- -- --
2019-11-21 07:00:00 -- -- -- -- -- -- -- -- --
2019-11-21 06:00:00 -- -- -- -- -- -- -- -- --
2019-11-21 05:00:00 -- -- -- -- -- -- -- -- --
2019-11-21 04:00:00 -- -- -- -- -- -- -- -- --
2019-11-21 03:00:00 -- -- -- -- -- -- -- -- --
2019-11-21 02:00:00 -- -- -- -- -- -- -- -- --
2019-11-21 01:00:00 -- -- -- -- -- -- -- -- --
2019-11-21 00:00:00 -- -- -- -- -- -- -- -- --
2019-11-20 23:00:00 -- -- -- -- -- -- -- -- --
2019-11-20 22:00:00 -- -- -- -- -- -- -- -- --
2019-11-20 21:00:00 -- -- -- -- -- -- -- -- --
2019-11-20 20:00:00 -- -- -- -- -- -- -- -- --
2019-11-20 19:00:00 4.3 9 Sudoeste 19 Noroeste 0.5 908.3 -0.5 79
2019-11-20 18:00:00 5.3 9 Noroeste 24 Oeste 0 908.4 -0.4 65
2019-11-20 17:00:00 7.6 6 Sudoeste 13 Oeste 0 908.4 -1.2 47
2019-11-20 16:00:00 8.6 5 Oeste 15 Sudoeste 0 908.8 -1.5 41
2019-11-20 15:00:00 9.9 8 Sudoeste 15 Sudoeste 0 908.8 -2.1 40
2019-11-20 14:00:00 9.6 6 Sur 18 Sudoeste 0 909.6 -1.6 38
2019-11-20 13:00:00 9.6 7 Sudoeste 14 Sudoeste 0 910.3 -0.2 40
2019-11-20 12:00:00 8.4 7 Sudoeste 15 Sudoeste 0 910.9 1 46
2019-11-20 11:00:00 7 3 Sudoeste 6 Sudoeste 0 911.2 1.6 58
2019-11-20 10:00:00 4.7 0 Calma 4 Sudoeste 0 910.5 0.6 71
2019-11-20 09:00:00 1 0 Calma -- -- 0 909.9 -0.3 78
2019-11-20 08:00:00 0.2 0 Calma -- -- 0 909.6 -0.8 79
2019-11-20 07:00:00 0.2 0 Calma -- -- 0 909.9 -1.1 78
2019-11-20 06:00:00 0.6 0 Calma -- -- 0 910.2 -1 80
2019-11-20 05:00:00 0.9 0 Calma -- -- 0 910.4 -1.3 78
2019-11-20 04:00:00 1 0 Calma -- -- 0 911 -1.2 78
2019-11-20 03:00:00 1 0 Calma 7 Noroeste 0 911.2 -1.5 76
2019-11-20 02:00:00 1.8 4 Norte 9 Noroeste 0 911.7 -1.4 74
2019-11-20 01:00:00 2 0 Calma 4 Norte 0 912.2 -1 73
2019-11-20 00:00:00 2.2 0 Calma 9 Norte 0 912.7 -0.4 73
2019-11-19 23:00:00 2.5 6 Norte 10 Norte 0 913.1 -0.3 70
2019-11-19 22:00:00 2.7 9 Norte 11 Norte 0 913.2 -0.1 70
2019-11-19 21:00:00 2.5 9 Norte 14 Norte 0 913.1 0 71
2019-11-19 20:00:00 2.9 8 Norte 20 Noroeste 0 913.4 0.3 69
2019-11-19 19:00:00 3.5 10 Noroeste 26 Noroeste 0 913.3 0.1 66
2019-11-19 18:00:00 3.9 15 Noroeste 27 Noroeste 0 913.1 -0.6 64
2019-11-19 17:00:00 5.5 15 Norte 36 Norte 0 913.1 -1.3 55
2019-11-19 16:00:00 5.6 21 Noroeste 35 Noroeste 0 913.2 -1.5 52
2019-11-19 15:00:00 6 17 Noroeste 35 Norte 0 913.7 -1.5 52
2019-11-19 14:00:00 6.1 15 Noroeste 31 Norte 0 914.4 -- 56
2019-11-19 13:00:00 5.3 14 Noroeste 30 Norte 0 914.7 -- 59
2019-11-19 12:00:00 4 15 Noroeste 31 Noroeste 0 915.2 -- 64
2019-11-19 11:00:00 -- -- -- -- -- -- -- -- --
2019-11-19 10:00:00 -- -- -- -- -- -- -- -- --
2019-11-19 09:00:00 -- -- -- -- -- -- -- -- --
2019-11-19 08:00:00 -- -- -- -- -- -- -- -- --
2019-11-19 07:00:00 -- -- -- -- -- -- -- -- --
2019-11-19 06:00:00 -- -- -- -- -- -- -- -- --
2019-11-19 05:00:00 -- -- -- -- -- -- -- -- --
2019-11-19 04:00:00 -- -- -- -- -- -- -- -- --
2019-11-19 03:00:00 -- -- -- -- -- -- -- -- --
2019-11-19 02:00:00 -- -- -- -- -- -- -- -- --
2019-11-19 01:00:00 -- -- -- -- -- -- -- -- --
2019-11-19 00:00:00 -- -- -- -- -- -- -- -- --
2019-11-18 23:00:00 -- -- -- -- -- -- -- -- --
2019-11-18 22:00:00 -- -- -- -- -- -- -- -- --
2019-11-18 21:00:00 -- -- -- -- -- -- -- -- --
2019-11-18 20:00:00 -- -- -- -- -- -- -- -- --
2019-11-18 19:00:00 -- -- -- -- -- -- -- -- --
2019-11-18 18:00:00 -- -- -- -- -- -- -- -- --
2019-11-18 17:00:00 -- -- -- -- -- -- -- -- --
2019-11-18 16:00:00 -- -- -- -- -- -- -- -- --
2019-11-18 15:00:00 -- -- -- -- -- -- -- -- --
2019-11-18 14:00:00 -- -- -- -- -- -- -- -- --
2019-11-18 13:00:00 -- -- -- -- -- -- -- -- --
2019-11-18 12:00:00 -- -- -- -- -- -- -- -- --
2019-11-18 11:00:00 -- -- -- -- -- -- -- -- --
2019-11-18 10:00:00 -- -- -- -- -- -- -- -- --
2019-11-18 09:00:00 -- -- -- -- -- -- -- -- --
2019-11-18 08:00:00 -- -- -- -- -- -- -- -- --
2019-11-18 07:00:00 -- -- -- -- -- -- -- -- --
2019-11-18 06:00:00 -- -- -- -- -- -- -- -- --
2019-11-18 05:00:00 -- -- -- -- -- -- -- -- --
2019-11-18 04:00:00 -- -- -- -- -- -- -- -- --
2019-11-18 03:00:00 -- -- -- -- -- -- -- -- --
2019-11-18 02:00:00 -- -- -- -- -- -- -- -- --
2019-11-18 01:00:00 -- -- -- -- -- -- -- -- --
2019-11-18 00:00:00 -- -- -- -- -- -- -- -- --
2019-11-17 23:00:00 -- -- -- -- -- -- -- -- --
2019-11-17 22:00:00 -- -- -- -- -- -- -- -- --
2019-11-17 21:00:00 -- -- -- -- -- -- -- -- --
2019-11-17 20:00:00 -- -- -- -- -- -- -- -- --
2019-11-17 19:00:00 -- -- -- -- -- -- -- -- --
2019-11-17 18:00:00 -- -- -- -- -- -- -- -- --
2019-11-17 17:00:00 -- -- -- -- -- -- -- -- --
2019-11-17 16:00:00 -- -- -- -- -- -- -- -- --
2019-11-17 15:00:00 -- -- -- -- -- -- -- -- --
2019-11-17 14:00:00 -- -- -- -- -- -- -- -- --
2019-11-17 13:00:00 -- -- -- -- -- -- -- -- --
2019-11-17 12:00:00 -- -- -- -- -- -- -- -- --
2019-11-17 11:00:00 -- -- -- -- -- -- -- -- --
2019-11-17 10:00:00 -- -- -- -- -- -- -- -- --
2019-11-17 09:00:00 -- -- -- -- -- -- -- -- --
2019-11-17 08:00:00 -- -- -- -- -- -- -- -- --
2019-11-17 07:00:00 -- -- -- -- -- -- -- -- --
2019-11-17 06:00:00 -- -- -- -- -- -- -- -- --
2019-11-17 05:00:00 -- -- -- -- -- -- -- -- --
2019-11-17 04:00:00 -- -- -- -- -- -- -- -- --
2019-11-17 03:00:00 -- -- -- -- -- -- -- -- --
2019-11-17 02:00:00 -- -- -- -- -- -- -- -- --
2019-11-17 01:00:00 -- -- -- -- -- -- -- -- --
2019-11-17 00:00:00 -- -- -- -- -- -- -- -- --
2019-11-16 23:00:00 -- -- -- -- -- -- -- -- --
2019-11-16 22:00:00 -- -- -- -- -- -- -- -- --
2019-11-16 21:00:00 -- -- -- -- -- -- -- -- --
2019-11-16 20:00:00 -- -- -- -- -- -- -- -- --
2019-11-16 19:00:00 -- -- -- -- -- -- -- -- --
2019-11-16 18:00:00 -- -- -- -- -- -- -- -- --
2019-11-16 17:00:00 -- -- -- -- -- -- -- -- --
2019-11-16 16:00:00 -- -- -- -- -- -- -- -- --
2019-11-16 15:00:00 -- -- -- -- -- -- -- -- --
2019-11-16 14:00:00 -- -- -- -- -- -- -- -- --
2019-11-16 13:00:00 -- -- -- -- -- -- -- -- --
2019-11-16 12:00:00 -- -- -- -- -- -- -- -- --
2019-11-16 11:00:00 -- -- -- -- -- -- -- -- --
2019-11-16 10:00:00 -- -- -- -- -- -- -- -- --
2019-11-16 09:00:00 -- -- -- -- -- -- -- -- --
2019-11-16 08:00:00 -1.3 14 Noroeste 30 Noroeste 0 908.4 2.3 90
2019-11-16 07:00:00 -1.9 14 Noroeste 26 Noroeste 0 907.7 2 89
2019-11-16 06:00:00 -1.6 12 Norte 26 Norte 0 907.1 1.8 88
2019-11-16 05:00:00 -1.3 11 Noroeste 23 Noroeste 0 906.1 0.8 88
2019-11-16 04:00:00 -0.7 9 Noroeste 19 Norte 0 905.7 0.4 87
2019-11-16 03:00:00 -0.4 10 Noroeste 17 Noroeste 0 905.3 0 87
2019-11-16 02:00:00 0 9 Noroeste 18 Noroeste 0 905.3 0.1 87
2019-11-16 01:00:00 0.3 11 Noroeste 18 Noroeste 0 905.3 0.5 85
2019-11-16 00:00:00 0.9 10 Noroeste 26 Noroeste 0 905.3 0.8 84
2019-11-15 23:00:00 0.8 15 Noroeste 30 Noroeste 0 905.2 1.3 83
2019-11-15 22:00:00 0.8 18 Noroeste 29 Noroeste 0 904.8 1 82
2019-11-15 21:00:00 1.2 17 Noroeste 25 Noroeste 0 904.5 1 80
2019-11-15 20:00:00 1.4 17 Noroeste 27 Noroeste 0 903.9 0.5 80
2019-11-15 19:00:00 1.8 16 Noroeste 26 Noroeste 0 903.8 0.5 78
2019-11-15 18:00:00 2.2 16 Oeste 33 Noroeste 0 903.5 0.5 78
2019-11-15 17:00:00 2.8 17 Noroeste 32 Noroeste 0 903.4 0.5 72
2019-11-15 16:00:00 3.6 19 Oeste 36 Noroeste 0 903.3 0.6 65
2019-11-15 15:00:00 3.9 22 Noroeste 40 Noroeste 0 903 0.1 59
2019-11-15 14:00:00 4.3 25 Noroeste 39 Oeste 0 902.9 -0.4 59
2019-11-15 13:00:00 4.1 22 Noroeste 39 Oeste 0 902.7 -0.5 62
2019-11-15 12:00:00 3.9 24 Noroeste 36 Noroeste 0 902.9 0.2 64
2019-11-15 11:00:00 4 23 Noroeste 36 Oeste 0 903.3 1.2 67
2019-11-15 10:00:00 2.5 21 Noroeste 37 Noroeste 0 903.2 1.8 71
2019-11-15 09:00:00 1.9 17 Noroeste 31 Noroeste 0 902.7 1.6 83
2019-11-15 08:00:00 0.9 19 Noroeste 31 Noroeste 0 902.1 1.6 85
2019-11-15 07:00:00 0.8 18 Noroeste 36 Oeste 0 901.4 0.9 85
2019-11-15 06:00:00 0.8 17 Noroeste 38 Noroeste 0 901.1 0.3 84
2019-11-15 05:00:00 1.2 23 Noroeste 46 Noroeste 0 900.5 -0.5 84
2019-11-15 04:00:00 1.9 25 Noroeste 40 Noroeste 0 900.5 -0.1 81
2019-11-15 03:00:00 2.2 17 Noroeste 37 Noroeste 0 900.8 -0.4 80
2019-11-15 02:00:00 2.7 23 Noroeste 49 Noroeste 0 901 0.2 80
2019-11-15 01:00:00 2.9 28 Noroeste 54 Noroeste 0.1 900.6 -0.4 78
2019-11-15 00:00:00 3.4 36 Noroeste 58 Oeste 0.1 901.2 0.6 74
2019-11-14 23:00:00 3.6 32 Noroeste 54 Oeste 0 900.8 0.2 72
2019-11-14 22:00:00 3.5 28 Oeste 50 Oeste 0 901 0.5 69
2019-11-14 21:00:00 3.9 32 Oeste 60 Noroeste 0 900.6 0 66
2019-11-14 20:00:00 3.4 26 Oeste 58 Oeste 0 900.6 -0.1 68
2019-11-14 19:00:00 3.4 28 Oeste -- -- -- 900.5 0.4 70
2019-11-14 18:00:00 3.5 26 Noroeste 94 Oeste 0 900.6 0.3 71
2019-11-14 17:00:00 4 23 Noroeste 40 Oeste 0 900.7 0.1 71
2019-11-14 16:00:00 5.3 23 Oeste 48 Noroeste 0 900.1 -0.9 78
2019-11-14 15:00:00 3.9 26 Noroeste 40 Oeste 0 900.3 -- 93
2019-11-14 14:00:00 1.7 22 Noroeste 34 Oeste 0.1 900.6 -- 94
2019-11-14 13:00:00 1.6 20 Oeste -- -- -- 901 -- 94
2019-11-14 12:00:00 -- -- -- -- -- -- -- -- --
2019-11-14 11:00:00 -- -- -- -- -- -- -- -- --
2019-11-14 10:00:00 -- -- -- -- -- -- -- -- --
2019-11-14 09:00:00 -- -- -- -- -- -- -- -- --
2019-11-14 08:00:00 6.4 22 Oeste 38 Oeste 0 904 -1 72
2019-11-14 07:00:00 6.9 23 Noroeste 43 Noroeste 0 904.4 -2.1 73
2019-11-14 06:00:00 6.9 20 Noroeste 34 Sudoeste 0 904.4 -3.4 69
2019-11-14 05:00:00 6.2 9 Oeste 23 Oeste 0 905 -4 80
2019-11-14 04:00:00 6.8 12 Oeste 28 Oeste 0 906.5 -3.2 81
2019-11-14 03:00:00 7.7 17 Oeste 33 Noroeste 0 907.8 -2.5 82
2019-11-14 02:00:00 8.1 20 Oeste 33 Oeste 0 909 -2.1 84
2019-11-14 01:00:00 7.9 17 Oeste 27 Oeste 0 909.7 -2.1 84
2019-11-14 00:00:00 8.3 18 Oeste 29 Oeste 0 910.3 -1.4 85
2019-11-13 23:00:00 8.3 15 Oeste 28 Oeste 0 911.1 -0.8 84
2019-11-13 22:00:00 8.7 13 Oeste 25 Oeste 0 911.8 0.5 83
2019-11-13 21:00:00 9.5 15 Noroeste 24 Noroeste 0 911.7 0.8 81
2019-11-13 20:00:00 9.5 14 Noroeste 26 Oeste 0 911.9 1.3 68
2019-11-13 19:00:00 8.9 10 Norte 26 Norte 0 911.3 1.1 65
2019-11-13 18:00:00 9.4 16 Norte 43 Noroeste 0 910.9 0.6 60
2019-11-13 17:00:00 10.9 29 Norte 54 Norte 0 910.6 1 55
2019-11-13 16:00:00 11.4 34 Norte 55 Norte 0 910.2 0.4 57
2019-11-13 15:00:00 10 27 Norte 46 Norte 0 910.3 0.9 71
2019-11-13 14:00:00 9.6 24 Noroeste 57 Noroeste 2.8 909.6 1 94
2019-11-13 13:00:00 10.1 30 Noroeste 56 Oeste 0.2 909.8 2.3 78
2019-11-13 12:00:00 10.3 32 Noroeste 55 Noroeste 0 909.4 2.3 78
2019-11-13 11:00:00 9.6 36 Noroeste 58 Noroeste 0 908.6 2.2 85
2019-11-13 10:00:00 8 30 Oeste 62 Noroeste 0 907.5 1.5 91
2019-11-13 09:00:00 6.9 34 Noroeste 58 Noroeste 0.1 907.1 0.7 91
2019-11-13 08:00:00 6.3 32 Noroeste 57 Noroeste 0 906.4 -0.4 90
2019-11-13 07:00:00 6.2 27 Oeste 44 Noroeste 0 906 -1.2 91
2019-11-13 06:00:00 5.8 23 Noroeste 48 Oeste 0.2 906.4 -1.3 91
2019-11-13 05:00:00 5.4 25 Noroeste 42 Noroeste 0.8 906.8 -1.7 90
2019-11-13 04:00:00 5.8 29 Noroeste 47 Noroeste 0 907.2 -1.8 81
2019-11-13 03:00:00 5.5 23 Oeste 40 Oeste 0 907.7 -1.9 78
2019-11-13 02:00:00 6 21 Noroeste 44 Noroeste 0 908.5 -1.5 73
2019-11-13 01:00:00 5.7 22 Noroeste 33 Noroeste 0 909 -1.6 71
2019-11-13 00:00:00 4.7 17 Noroeste 29 Noroeste 0 909.6 -1.1 77
2019-11-12 23:00:00 4.6 12 Noroeste 37 Noroeste 0 910 -0.9 74
2019-11-12 22:00:00 4.8 23 Noroeste 37 Noroeste 0 910.6 -0.4 62
2019-11-12 21:00:00 4.3 11 Noroeste 29 Noroeste 0 910.7 -0.3 62
2019-11-12 20:00:00 5.1 17 Noroeste 41 Norte 0 910.9 -0.5 59
2019-11-12 19:00:00 5.6 18 Noroeste 36 Noroeste 0 911 -0.4 56
2019-11-12 18:00:00 6.2 13 Noroeste 40 Noroeste 0 911 -0.3 50
2019-11-12 17:00:00 8 21 Noroeste 50 Oeste 0 911.4 -0.2 43
2019-11-12 16:00:00 8.7 29 Noroeste 59 Oeste 0 911.4 -0.5 43
2019-11-12 15:00:00 9.3 23 Noroeste 44 Noroeste 0 911.3 -1.3 43
2019-11-12 14:00:00 8.7 26 Noroeste 46 Norte 0 911.6 -1.1 45
2019-11-12 13:00:00 8 17 Noroeste 39 Norte 0 911.9 -0.4 54
2019-11-12 12:00:00 6.2 17 Norte 33 Noroeste 0 912.6 0.8 59
2019-11-12 11:00:00 4.9 18 Noroeste 42 Noroeste 0 912.7 0.8 67
2019-11-12 10:00:00 3.6 12 Noroeste 34 Norte 0 912.3 0.9 73
2019-11-12 09:00:00 2.1 10 Noroeste 19 Noroeste 0 911.8 0.6 75
2019-11-12 08:00:00 1.4 10 Norte 26 Norte 0 911.9 0.5 75
2019-11-12 07:00:00 1.7 17 Norte 30 Norte 0 911.4 -0.1 75
2019-11-12 06:00:00 1.3 20 Norte 32 Noroeste 0 911.2 -0.5 78
2019-11-12 05:00:00 0.9 15 Noroeste 33 Norte 0 911.4 -0.7 81
2019-11-12 04:00:00 1.2 15 Norte 28 Noroeste 0 911.5 -1.2 83
2019-11-12 03:00:00 1.1 14 Norte 24 Noroeste 0 911.7 -1.2 90
2019-11-12 02:00:00 1.3 9 Norte 17 Norte 0 912.1 -1 93
2019-11-12 01:00:00 2.2 6 Norte 21 Nordeste 0 912.7 -0.3 93
2019-11-12 00:00:00 3 14 Noroeste 32 Noroeste 0 912.9 -0.1 93
2019-11-11 23:00:00 3.7 11 Norte 27 Noroeste 0 913.1 0.2 90
2019-11-11 22:00:00 4.4 13 Noroeste 29 Noroeste 0 913 0.3 89
2019-11-11 21:00:00 4.8 15 Norte 37 Norte 0 913 0.5 87
2019-11-11 20:00:00 5.3 19 Noroeste 35 Norte 0 912.9 0.7 85
2019-11-11 19:00:00 5.3 10 Noroeste 33 Noroeste 0 912.7 1.2 84
2019-11-11 18:00:00 5.8 14 Norte 42 Norte 0 912.5 0.5 76
2019-11-11 17:00:00 6.5 15 Noroeste 50 Noroeste 0 912.2 0.2 71
2019-11-11 16:00:00 7 28 Norte 49 Norte 0 911.5 -0.7 71
2019-11-11 15:00:00 6.6 28 Noroeste 52 Noroeste 0 912 -1 72
2019-11-11 14:00:00 5.8 29 Noroeste 55 Norte 0 912 -1.1 72
2019-11-11 13:00:00 5.2 23 Noroeste 51 Norte 0 912.2 -0.9 74
2019-11-11 12:00:00 4.6 24 Noroeste 44 Noroeste 0 913 0 77
2019-11-11 11:00:00 3.4 21 Noroeste 38 Noroeste 0 913.1 0.2 83
2019-11-11 10:00:00 2.2 21 Norte 37 Noroeste 0 913.1 0.2 86
2019-11-11 09:00:00 1.4 11 Noroeste 31 Noroeste 0 913 -0.1 88
2019-11-11 08:00:00 0.9 18 Noroeste 31 Noroeste 0 912.9 -0.4 88
2019-11-11 07:00:00 0.3 11 Noroeste 21 Noroeste 0 912.9 -0.2 88
2019-11-11 06:00:00 0 13 Noroeste 28 Noroeste 0 913.1 -0.6 87
2019-11-11 05:00:00 0.1 18 Noroeste 31 Noroeste 0 913.3 -0.3 88
2019-11-11 04:00:00 -0.1 18 Noroeste 29 Noroeste 0 913.1 -0.1 88
2019-11-11 03:00:00 -0.2 10 Noroeste 31 Noroeste 0 913.7 0.7 88
2019-11-11 02:00:00 -0.1 14 Noroeste 27 Oeste 0 913.6 1.1 87
2019-11-11 01:00:00 0.2 16 Noroeste 28 Noroeste 0 913.2 0.3 87
2019-11-11 00:00:00 0.7 18 Noroeste 41 Noroeste 0 913 0.1 84